Sticks, Pennsylvania
Current Conditions -  °F | °C
As of 9:02 AM on Wednesday 26 Nov 2014 (Local Time) from KTHV Reporting Station
Moderate Rain Moderate Rain  
Wind Chill: 30°   Ceiling: 1000
Heat Index: 36°   Visibility: 4mi
Dew Point: 34°   Wind: 7mph
Humidity: 93%   Direction: 60°ENE
Pressure: 30.11"   Gusts: NA
Location:  39.7603°N, 76.8573°W
Report Text: KTHV 261402Z AUTO 06006KT 4SM RA BR BKN010 OVC015 02/01 A3011 RMK AO2 P0001 T00220011
Loading
Personal Weather Stations






























Interactive Weather Map New forecast layout! Learn more

10-Day Weather Forecast

Advertisements
Track Severe Weather on mobile